Moran, Kansas
Current Conditions -  °F | °C
As of 8:52 PM on Thursday 27 Nov 2014 (Local Time) from KCNU Reporting Station
Clear Clear  
Wind Chill: 24°   Ceiling: Unl
Heat Index: 31°   Visibility: 10mi
Dew Point: 23°   Wind: 7mph
Humidity: 72%   Direction: 130°SE
Pressure: 30.32"   Gusts: NA
Location:  37.92°N, 95.17°W
Report Text: KCNU 280252Z AUTO 13006KT 10SM CLR M01/M05 A3032 RMK AO2 SLP275 T10061050 58010
Loading
Personal Weather Stations






























Interactive Weather Map New forecast layout! Learn more

10-Day Weather Forecast

Advertisements
Track Severe Weather on mobile